sensor_id;sensor_type;location;lat;lon;timestamp;P1;durP1;ratioP1;P2;durP2;ratioP2
21806;SDS011;11065;50.786;7.840;2023-06-26T00:01:21;8.37;;;4.40;;
21806;SDS011;11065;50.786;7.840;2023-06-26T00:03:51;7.83;;;5.10;;
21806;SDS011;11065;50.786;7.840;2023-06-26T00:06:18;5.80;;;4.73;;
21806;SDS011;11065;50.786;7.840;2023-06-26T00:08:47;7.43;;;5.03;;
21806;SDS011;11065;50.786;7.840;2023-06-26T00:11:15;8.50;;;5.40;;
21806;SDS011;11065;50.786;7.840;2023-06-26T00:13:43;5.70;;;4.77;;
21806;SDS011;11065;50.786;7.840;2023-06-26T00:16:11;5.70;;;4.97;;
21806;SDS011;11065;50.786;7.840;2023-06-26T00:18:39;6.17;;;4.93;;
21806;SDS011;11065;50.786;7.840;2023-06-26T00:21:08;6.57;;;4.70;;
21806;SDS011;11065;50.786;7.840;2023-06-26T00:23:36;5.40;;;4.77;;
21806;SDS011;11065;50.786;7.840;2023-06-26T00:26:06;7.00;;;5.00;;
21806;SDS011;11065;50.786;7.840;2023-06-26T00:28:35;7.80;;;4.90;;
21806;SDS011;11065;50.786;7.840;2023-06-26T00:31:03;6.40;;;4.70;;
21806;SDS011;11065;50.786;7.840;2023-06-26T00:33:31;7.63;;;5.17;;
21806;SDS011;11065;50.786;7.840;2023-06-26T00:35:59;6.07;;;5.00;;
21806;SDS011;11065;50.786;7.840;2023-06-26T00:38:31;5.50;;;4.67;;
21806;SDS011;11065;50.786;7.840;2023-06-26T00:40:58;7.33;;;5.90;;
21806;SDS011;11065;50.786;7.840;2023-06-26T00:43:28;7.67;;;5.30;;
21806;SDS011;11065;50.786;7.840;2023-06-26T00:45:56;6.97;;;5.27;;
21806;SDS011;11065;50.786;7.840;2023-06-26T00:48:24;6.57;;;5.17;;
21806;SDS011;11065;50.786;7.840;2023-06-26T00:50:52;7.73;;;4.93;;
21806;SDS011;11065;50.786;7.840;2023-06-26T00:53:20;6.80;;;5.07;;
21806;SDS011;11065;50.786;7.840;2023-06-26T00:55:50;8.07;;;5.33;;
21806;SDS011;11065;50.786;7.840;2023-06-26T00:58:18;6.37;;;4.60;;
21806;SDS011;11065;50.786;7.840;2023-06-26T01:00:48;6.83;;;5.13;;
21806;SDS011;11065;50.786;7.840;2023-06-26T01:03:18;7.53;;;5.10;;
21806;SDS011;11065;50.786;7.840;2023-06-26T01:05:46;6.23;;;5.17;;
21806;SDS011;11065;50.786;7.840;2023-06-26T01:08:16;7.80;;;5.00;;
21806;SDS011;11065;50.786;7.840;2023-06-26T01:10:45;6.30;;;5.20;;
21806;SDS011;11065;50.786;7.840;2023-06-26T01:13:16;5.83;;;4.80;;
21806;SDS011;11065;50.786;7.840;2023-06-26T01:15:46;6.57;;;4.47;;
21806;SDS011;11065;50.786;7.840;2023-06-26T01:18:14;10.83;;;5.70;;
21806;SDS011;11065;50.786;7.840;2023-06-26T01:20:42;6.30;;;5.17;;
21806;SDS011;11065;50.786;7.840;2023-06-26T01:23:14;7.00;;;5.30;;
21806;SDS011;11065;50.786;7.840;2023-06-26T01:25:52;6.50;;;4.87;;
21806;SDS011;11065;50.786;7.840;2023-06-26T01:28:29;8.80;;;5.40;;
21806;SDS011;11065;50.786;7.840;2023-06-26T01:30:59;5.90;;;4.90;;
21806;SDS011;11065;50.786;7.840;2023-06-26T01:33:29;7.10;;;5.20;;
21806;SDS011;11065;50.786;7.840;2023-06-26T01:35:57;8.30;;;5.30;;
21806;SDS011;11065;50.786;7.840;2023-06-26T01:38:26;6.30;;;5.13;;
21806;SDS011;11065;50.786;7.840;2023-06-26T01:40:56;7.50;;;5.30;;
21806;SDS011;11065;50.786;7.840;2023-06-26T01:43:26;6.27;;;5.30;;
21806;SDS011;11065;50.786;7.840;2023-06-26T01:46:01;6.77;;;5.23;;
21806;SDS011;11065;50.786;7.840;2023-06-26T01:48:38;7.13;;;4.87;;
21806;SDS011;11065;50.786;7.840;2023-06-26T01:51:13;6.77;;;5.47;;
21806;SDS011;11065;50.786;7.840;2023-06-26T01:53:45;8.70;;;5.60;;
21806;SDS011;11065;50.786;7.840;2023-06-26T01:56:18;8.23;;;5.53;;
21806;SDS011;11065;50.786;7.840;2023-06-26T01:58:47;7.23;;;5.90;;
21806;SDS011;11065;50.786;7.840;2023-06-26T02:01:17;6.47;;;5.33;;
21806;SDS011;11065;50.786;7.840;2023-06-26T02:03:45;8.17;;;5.00;;
21806;SDS011;11065;50.786;7.840;2023-06-26T02:06:13;8.43;;;5.10;;
21806;SDS011;11065;50.786;7.840;2023-06-26T02:08:41;6.63;;;5.03;;
21806;SDS011;11065;50.786;7.840;2023-06-26T02:11:09;7.87;;;5.10;;
21806;SDS011;11065;50.786;7.840;2023-06-26T02:13:39;7.57;;;5.53;;
21806;SDS011;11065;50.786;7.840;2023-06-26T02:16:07;6.43;;;5.57;;
21806;SDS011;11065;50.786;7.840;2023-06-26T02:18:36;6.20;;;5.10;;
21806;SDS011;11065;50.786;7.840;2023-06-26T02:21:04;7.27;;;5.13;;
21806;SDS011;11065;50.786;7.840;2023-06-26T02:23:33;6.23;;;5.10;;
21806;SDS011;11065;50.786;7.840;2023-06-26T02:26:01;7.63;;;5.10;;
21806;SDS011;11065;50.786;7.840;2023-06-26T02:28:28;7.00;;;5.60;;
21806;SDS011;11065;50.786;7.840;2023-06-26T02:30:57;8.00;;;5.80;;
21806;SDS011;11065;50.786;7.840;2023-06-26T02:33:25;7.93;;;5.70;;
21806;SDS011;11065;50.786;7.840;2023-06-26T02:35:54;6.70;;;5.17;;
21806;SDS011;11065;50.786;7.840;2023-06-26T02:38:22;6.33;;;5.37;;
21806;SDS011;11065;50.786;7.840;2023-06-26T02:40:50;7.67;;;5.50;;
21806;SDS011;11065;50.786;7.840;2023-06-26T02:43:18;6.90;;;5.40;;
21806;SDS011;11065;50.786;7.840;2023-06-26T02:45:46;5.67;;;5.10;;
21806;SDS011;11065;50.786;7.840;2023-06-26T02:48:14;6.73;;;5.57;;
21806;SDS011;11065;50.786;7.840;2023-06-26T02:50:42;6.50;;;5.47;;
21806;SDS011;11065;50.786;7.840;2023-06-26T02:53:15;6.97;;;5.53;;
21806;SDS011;11065;50.786;7.840;2023-06-26T02:55:45;6.77;;;5.63;;
21806;SDS011;11065;50.786;7.840;2023-06-26T02:58:14;6.87;;;5.57;;
21806;SDS011;11065;50.786;7.840;2023-06-26T03:00:42;8.23;;;5.70;;
21806;SDS011;11065;50.786;7.840;2023-06-26T03:03:14;6.77;;;5.57;;
21806;SDS011;11065;50.786;7.840;2023-06-26T03:05:42;7.53;;;5.87;;
21806;SDS011;11065;50.786;7.840;2023-06-26T03:08:10;6.23;;;5.03;;
21806;SDS011;11065;50.786;7.840;2023-06-26T03:10:40;7.00;;;5.00;;
21806;SDS011;11065;50.786;7.840;2023-06-26T03:13:09;6.27;;;5.47;;
21806;SDS011;11065;50.786;7.840;2023-06-26T03:15:37;6.90;;;5.07;;
21806;SDS011;11065;50.786;7.840;2023-06-26T03:18:05;7.10;;;5.30;;
21806;SDS011;11065;50.786;7.840;2023-06-26T03:20:33;6.40;;;5.33;;
21806;SDS011;11065;50.786;7.840;2023-06-26T03:23:01;10.47;;;5.63;;
21806;SDS011;11065;50.786;7.840;2023-06-26T03:25:30;6.40;;;5.43;;
21806;SDS011;11065;50.786;7.840;2023-06-26T03:28:13;9.37;;;5.50;;
21806;SDS011;11065;50.786;7.840;2023-06-26T03:30:42;9.20;;;6.07;;
21806;SDS011;11065;50.786;7.840;2023-06-26T03:33:10;7.97;;;6.27;;
21806;SDS011;11065;50.786;7.840;2023-06-26T03:35:38;8.80;;;5.60;;
21806;SDS011;11065;50.786;7.840;2023-06-26T03:38:08;9.07;;;5.33;;
21806;SDS011;11065;50.786;7.840;2023-06-26T03:40:37;7.63;;;5.47;;
21806;SDS011;11065;50.786;7.840;2023-06-26T03:43:05;6.93;;;5.63;;
21806;SDS011;11065;50.786;7.840;2023-06-26T03:45:45;7.43;;;6.03;;
21806;SDS011;11065;50.786;7.840;2023-06-26T03:48:13;6.97;;;5.37;;
21806;SDS011;11065;50.786;7.840;2023-06-26T03:50:41;6.70;;;5.83;;
21806;SDS011;11065;50.786;7.840;2023-06-26T03:53:09;6.60;;;5.90;;
21806;SDS011;11065;50.786;7.840;2023-06-26T03:55:39;8.23;;;5.63;;
21806;SDS011;11065;50.786;7.840;2023-06-26T03:58:08;6.07;;;5.07;;
21806;SDS011;11065;50.786;7.840;2023-06-26T04:00:36;7.97;;;5.77;;
21806;SDS011;11065;50.786;7.840;2023-06-26T04:03:06;8.67;;;5.93;;
21806;SDS011;11065;50.786;7.840;2023-06-26T04:05:34;6.83;;;5.43;;
21806;SDS011;11065;50.786;7.840;2023-06-26T04:08:02;9.97;;;6.17;;
21806;SDS011;11065;50.786;7.840;2023-06-26T04:10:31;11.20;;;5.63;;
21806;SDS011;11065;50.786;7.840;2023-06-26T04:12:58;9.47;;;6.57;;
21806;SDS011;11065;50.786;7.840;2023-06-26T04:15:26;10.17;;;6.23;;
21806;SDS011;11065;50.786;7.840;2023-06-26T04:17:54;8.00;;;6.13;;
21806;SDS011;11065;50.786;7.840;2023-06-26T04:20:24;8.33;;;6.40;;
21806;SDS011;11065;50.786;7.840;2023-06-26T04:22:52;7.67;;;6.43;;
21806;SDS011;11065;50.786;7.840;2023-06-26T04:25:20;7.83;;;6.33;;
21806;SDS011;11065;50.786;7.840;2023-06-26T04:27:47;7.30;;;6.13;;
21806;SDS011;11065;50.786;7.840;2023-06-26T04:30:15;7.77;;;6.23;;
21806;SDS011;11065;50.786;7.840;2023-06-26T04:32:43;9.70;;;5.93;;
21806;SDS011;11065;50.786;7.840;2023-06-26T04:35:11;7.20;;;5.80;;
21806;SDS011;11065;50.786;7.840;2023-06-26T04:37:40;9.33;;;6.83;;
21806;SDS011;11065;50.786;7.840;2023-06-26T04:40:09;7.93;;;6.00;;
21806;SDS011;11065;50.786;7.840;2023-06-26T04:42:37;7.97;;;5.97;;
21806;SDS011;11065;50.786;7.840;2023-06-26T04:45:06;8.27;;;6.43;;
21806;SDS011;11065;50.786;7.840;2023-06-26T04:47:34;9.17;;;6.37;;
21806;SDS011;11065;50.786;7.840;2023-06-26T04:50:02;8.30;;;6.87;;
21806;SDS011;11065;50.786;7.840;2023-06-26T04:52:30;8.50;;;6.07;;
21806;SDS011;11065;50.786;7.840;2023-06-26T04:55:00;8.40;;;6.43;;
21806;SDS011;11065;50.786;7.840;2023-06-26T04:57:28;7.03;;;5.87;;
21806;SDS011;11065;50.786;7.840;2023-06-26T04:59:55;7.97;;;6.60;;
21806;SDS011;11065;50.786;7.840;2023-06-26T05:02:23;6.73;;;6.00;;
21806;SDS011;11065;50.786;7.840;2023-06-26T05:04:53;8.43;;;7.03;;
21806;SDS011;11065;50.786;7.840;2023-06-26T05:07:21;9.97;;;6.83;;
21806;SDS011;11065;50.786;7.840;2023-06-26T05:09:48;7.83;;;6.63;;
21806;SDS011;11065;50.786;7.840;2023-06-26T05:12:18;10.10;;;6.53;;
21806;SDS011;11065;50.786;7.840;2023-06-26T05:14:46;10.97;;;6.83;;
21806;SDS011;11065;50.786;7.840;2023-06-26T05:17:14;8.97;;;6.93;;
21806;SDS011;11065;50.786;7.840;2023-06-26T05:19:42;7.53;;;6.43;;
21806;SDS011;11065;50.786;7.840;2023-06-26T05:22:10;8.60;;;7.10;;
21806;SDS011;11065;50.786;7.840;2023-06-26T05:24:40;9.07;;;7.47;;
21806;SDS011;11065;50.786;7.840;2023-06-26T05:27:09;9.23;;;7.03;;
21806;SDS011;11065;50.786;7.840;2023-06-26T05:29:47;7.83;;;6.80;;
21806;SDS011;11065;50.786;7.840;2023-06-26T05:32:16;7.77;;;6.37;;
21806;SDS011;11065;50.786;7.840;2023-06-26T05:34:45;7.87;;;6.93;;
21806;SDS011;11065;50.786;7.840;2023-06-26T05:37:16;7.83;;;6.73;;
21806;SDS011;11065;50.786;7.840;2023-06-26T05:39:47;8.33;;;6.67;;
21806;SDS011;11065;50.786;7.840;2023-06-26T05:42:16;10.27;;;6.67;;
21806;SDS011;11065;50.786;7.840;2023-06-26T05:44:44;9.73;;;7.07;;
21806;SDS011;11065;50.786;7.840;2023-06-26T05:47:14;7.63;;;6.63;;
21806;SDS011;11065;50.786;7.840;2023-06-26T05:49:42;9.20;;;7.40;;
21806;SDS011;11065;50.786;7.840;2023-06-26T05:52:10;7.97;;;6.93;;
21806;SDS011;11065;50.786;7.840;2023-06-26T05:54:39;8.37;;;6.40;;
21806;SDS011;11065;50.786;7.840;2023-06-26T05:57:07;7.87;;;6.63;;
21806;SDS011;11065;50.786;7.840;2023-06-26T05:59:36;8.67;;;6.60;;
21806;SDS011;11065;50.786;7.840;2023-06-26T06:02:08;8.10;;;7.07;;
21806;SDS011;11065;50.786;7.840;2023-06-26T06:04:36;9.77;;;7.00;;
21806;SDS011;11065;50.786;7.840;2023-06-26T06:07:04;7.87;;;6.57;;
21806;SDS011;11065;50.786;7.840;2023-06-26T06:09:32;9.20;;;6.27;;
21806;SDS011;11065;50.786;7.840;2023-06-26T06:12:00;7.37;;;6.33;;
21806;SDS011;11065;50.786;7.840;2023-06-26T06:14:29;9.47;;;7.13;;
21806;SDS011;11065;50.786;7.840;2023-06-26T06:16:57;9.27;;;6.67;;
21806;SDS011;11065;50.786;7.840;2023-06-26T06:19:27;8.23;;;7.00;;
21806;SDS011;11065;50.786;7.840;2023-06-26T06:21:55;9.73;;;6.40;;
21806;SDS011;11065;50.786;7.840;2023-06-26T06:24:23;6.90;;;5.97;;
21806;SDS011;11065;50.786;7.840;2023-06-26T06:26:51;7.87;;;5.57;;
21806;SDS011;11065;50.786;7.840;2023-06-26T06:29:19;8.60;;;5.80;;
21806;SDS011;11065;50.786;7.840;2023-06-26T06:31:48;7.73;;;6.07;;
21806;SDS011;11065;50.786;7.840;2023-06-26T06:34:16;7.03;;;5.70;;
21806;SDS011;11065;50.786;7.840;2023-06-26T06:36:45;7.20;;;5.63;;
21806;SDS011;11065;50.786;7.840;2023-06-26T06:39:13;7.47;;;6.00;;
21806;SDS011;11065;50.786;7.840;2023-06-26T06:41:41;6.70;;;5.47;;
21806;SDS011;11065;50.786;7.840;2023-06-26T06:44:10;7.23;;;5.83;;
21806;SDS011;11065;50.786;7.840;2023-06-26T06:46:38;7.47;;;6.07;;
21806;SDS011;11065;50.786;7.840;2023-06-26T06:49:07;8.57;;;5.73;;
21806;SDS011;11065;50.786;7.840;2023-06-26T06:51:35;9.97;;;6.60;;
21806;SDS011;11065;50.786;7.840;2023-06-26T06:54:04;8.40;;;6.10;;
21806;SDS011;11065;50.786;7.840;2023-06-26T06:56:32;8.03;;;6.17;;
21806;SDS011;11065;50.786;7.840;2023-06-26T06:59:00;8.47;;;6.10;;
21806;SDS011;11065;50.786;7.840;2023-06-26T07:01:29;7.30;;;6.03;;
21806;SDS011;11065;50.786;7.840;2023-06-26T07:03:56;6.97;;;5.87;;
21806;SDS011;11065;50.786;7.840;2023-06-26T07:06:25;7.77;;;6.00;;
21806;SDS011;11065;50.786;7.840;2023-06-26T07:08:53;6.93;;;6.10;;
21806;SDS011;11065;50.786;7.840;2023-06-26T07:11:22;11.27;;;6.13;;
21806;SDS011;11065;50.786;7.840;2023-06-26T07:13:50;7.27;;;5.87;;
21806;SDS011;11065;50.786;7.840;2023-06-26T07:16:18;7.90;;;6.17;;
21806;SDS011;11065;50.786;7.840;2023-06-26T07:18:46;6.80;;;5.90;;
21806;SDS011;11065;50.786;7.840;2023-06-26T07:21:16;7.27;;;5.67;;
21806;SDS011;11065;50.786;7.840;2023-06-26T07:23:43;7.50;;;5.97;;
21806;SDS011;11065;50.786;7.840;2023-06-26T07:26:13;7.63;;;5.83;;
21806;SDS011;11065;50.786;7.840;2023-06-26T07:28:43;9.63;;;5.87;;
21806;SDS011;11065;50.786;7.840;2023-06-26T07:31:11;7.17;;;6.00;;
21806;SDS011;11065;50.786;7.840;2023-06-26T07:33:39;8.60;;;6.13;;
21806;SDS011;11065;50.786;7.840;2023-06-26T07:36:08;6.93;;;5.70;;
21806;SDS011;11065;50.786;7.840;2023-06-26T07:38:36;8.83;;;5.53;;
21806;SDS011;11065;50.786;7.840;2023-06-26T07:41:03;7.53;;;5.57;;
21806;SDS011;11065;50.786;7.840;2023-06-26T07:43:31;7.37;;;5.90;;
21806;SDS011;11065;50.786;7.840;2023-06-26T07:46:01;7.50;;;5.63;;
21806;SDS011;11065;50.786;7.840;2023-06-26T07:48:28;7.43;;;5.40;;
21806;SDS011;11065;50.786;7.840;2023-06-26T07:50:56;7.20;;;5.40;;
21806;SDS011;11065;50.786;7.840;2023-06-26T07:53:24;7.10;;;5.83;;
21806;SDS011;11065;50.786;7.840;2023-06-26T07:55:52;6.77;;;4.80;;
21806;SDS011;11065;50.786;7.840;2023-06-26T07:58:20;8.37;;;5.50;;
21806;SDS011;11065;50.786;7.840;2023-06-26T08:00:48;8.10;;;5.80;;
21806;SDS011;11065;50.786;7.840;2023-06-26T08:03:17;6.60;;;5.30;;
21806;SDS011;11065;50.786;7.840;2023-06-26T08:06:00;7.97;;;4.70;;
21806;SDS011;11065;50.786;7.840;2023-06-26T08:08:29;6.40;;;4.83;;
21806;SDS011;11065;50.786;7.840;2023-06-26T08:10:57;6.87;;;4.93;;
21806;SDS011;11065;50.786;7.840;2023-06-26T08:13:25;7.30;;;5.27;;
21806;SDS011;11065;50.786;7.840;2023-06-26T08:15:53;6.60;;;4.70;;
21806;SDS011;11065;50.786;7.840;2023-06-26T08:18:22;7.47;;;4.90;;
21806;SDS011;11065;50.786;7.840;2023-06-26T08:20:50;7.43;;;4.77;;
21806;SDS011;11065;50.786;7.840;2023-06-26T08:23:18;7.40;;;4.97;;
21806;SDS011;11065;50.786;7.840;2023-06-26T08:25:51;7.07;;;4.67;;
21806;SDS011;11065;50.786;7.840;2023-06-26T08:28:19;7.83;;;4.97;;
21806;SDS011;11065;50.786;7.840;2023-06-26T08:30:46;5.78;;;4.72;;
21806;SDS011;11065;50.786;7.840;2023-06-26T08:33:14;6.67;;;4.73;;
21806;SDS011;11065;50.786;7.840;2023-06-26T08:35:44;7.35;;;4.88;;
21806;SDS011;11065;50.786;7.840;2023-06-26T08:38:12;5.68;;;4.60;;
21806;SDS011;11065;50.786;7.840;2023-06-26T08:40:39;6.68;;;4.78;;
21806;SDS011;11065;50.786;7.840;2023-06-26T08:43:09;5.75;;;4.13;;
21806;SDS011;11065;50.786;7.840;2023-06-26T08:45:37;11.07;;;5.07;;
21806;SDS011;11065;50.786;7.840;2023-06-26T08:48:06;7.07;;;5.05;;
21806;SDS011;11065;50.786;7.840;2023-06-26T08:50:35;7.40;;;4.80;;
21806;SDS011;11065;50.786;7.840;2023-06-26T08:53:09;7.47;;;4.47;;
21806;SDS011;11065;50.786;7.840;2023-06-26T08:55:41;6.82;;;4.30;;
21806;SDS011;11065;50.786;7.840;2023-06-26T08:58:10;6.38;;;4.15;;
21806;SDS011;11065;50.786;7.840;2023-06-26T09:00:38;5.85;;;4.68;;
21806;SDS011;11065;50.786;7.840;2023-06-26T09:03:07;6.68;;;4.45;;
21806;SDS011;11065;50.786;7.840;2023-06-26T09:05:37;7.40;;;4.80;;
21806;SDS011;11065;50.786;7.840;2023-06-26T09:08:05;7.72;;;4.75;;
21806;SDS011;11065;50.786;7.840;2023-06-26T09:10:35;7.47;;;5.28;;
21806;SDS011;11065;50.786;7.840;2023-06-26T09:13:04;5.15;;;4.25;;
21806;SDS011;11065;50.786;7.840;2023-06-26T09:15:50;7.80;;;4.78;;
21806;SDS011;11065;50.786;7.840;2023-06-26T09:18:21;6.28;;;4.38;;
21806;SDS011;11065;50.786;7.840;2023-06-26T09:20:49;6.80;;;4.43;;
21806;SDS011;11065;50.786;7.840;2023-06-26T09:23:20;5.47;;;4.45;;
21806;SDS011;11065;50.786;7.840;2023-06-26T09:25:51;7.35;;;4.53;;
21806;SDS011;11065;50.786;7.840;2023-06-26T09:28:19;7.45;;;4.90;;
21806;SDS011;11065;50.786;7.840;2023-06-26T09:30:47;6.78;;;4.35;;
21806;SDS011;11065;50.786;7.840;2023-06-26T09:33:17;5.05;;;4.07;;
21806;SDS011;11065;50.786;7.840;2023-06-26T09:35:46;6.82;;;4.15;;
21806;SDS011;11065;50.786;7.840;2023-06-26T09:38:14;5.47;;;3.78;;
21806;SDS011;11065;50.786;7.840;2023-06-26T09:40:44;6.07;;;4.05;;
21806;SDS011;11065;50.786;7.840;2023-06-26T09:43:13;5.75;;;3.83;;
21806;SDS011;11065;50.786;7.840;2023-06-26T09:45:41;5.32;;;3.45;;
21806;SDS011;11065;50.786;7.840;2023-06-26T09:48:10;7.03;;;4.43;;
21806;SDS011;11065;50.786;7.840;2023-06-26T09:50:41;5.07;;;3.90;;
21806;SDS011;11065;50.786;7.840;2023-06-26T09:53:29;6.90;;;4.15;;
21806;SDS011;11065;50.786;7.840;2023-06-26T09:55:58;6.75;;;4.38;;
21806;SDS011;11065;50.786;7.840;2023-06-26T09:58:27;5.38;;;3.60;;
21806;SDS011;11065;50.786;7.840;2023-06-26T10:00:56;5.15;;;3.80;;
21806;SDS011;11065;50.786;7.840;2023-06-26T10:03:24;5.45;;;3.88;;
21806;SDS011;11065;50.786;7.840;2023-06-26T10:05:52;5.05;;;3.50;;
21806;SDS011;11065;50.786;7.840;2023-06-26T10:08:21;6.70;;;3.75;;
21806;SDS011;11065;50.786;7.840;2023-06-26T10:10:49;5.28;;;3.75;;
21806;SDS011;11065;50.786;7.840;2023-06-26T10:13:19;7.78;;;3.90;;
21806;SDS011;11065;50.786;7.840;2023-06-26T10:15:52;5.63;;;3.55;;
21806;SDS011;11065;50.786;7.840;2023-06-26T10:18:22;6.28;;;4.07;;
21806;SDS011;11065;50.786;7.840;2023-06-26T10:20:53;4.72;;;3.13;;
21806;SDS011;11065;50.786;7.840;2023-06-26T10:23:24;5.43;;;3.13;;
21806;SDS011;11065;50.786;7.840;2023-06-26T10:25:54;6.32;;;3.67;;
21806;SDS011;11065;50.786;7.840;2023-06-26T10:28:27;7.35;;;3.67;;
21806;SDS011;11065;50.786;7.840;2023-06-26T10:30:59;4.63;;;4.00;;
21806;SDS011;11065;50.786;7.840;2023-06-26T10:33:30;8.45;;;4.10;;
21806;SDS011;11065;50.786;7.840;2023-06-26T10:36:11;8.13;;;4.28;;
21806;SDS011;11065;50.786;7.840;2023-06-26T10:38:50;5.35;;;3.45;;
21806;SDS011;11065;50.786;7.840;2023-06-26T10:41:20;5.13;;;3.05;;
21806;SDS011;11065;50.786;7.840;2023-06-26T10:43:50;7.20;;;3.55;;
21806;SDS011;11065;50.786;7.840;2023-06-26T10:46:20;6.05;;;3.58;;
21806;SDS011;11065;50.786;7.840;2023-06-26T10:48:56;4.85;;;3.20;;
21806;SDS011;11065;50.786;7.840;2023-06-26T10:51:26;6.57;;;3.50;;
21806;SDS011;11065;50.786;7.840;2023-06-26T10:53:54;6.55;;;3.83;;
21806;SDS011;11065;50.786;7.840;2023-06-26T10:59:13;6.43;;;3.65;;
21806;SDS011;11065;50.786;7.840;2023-06-26T11:01:45;6.70;;;3.60;;
21806;SDS011;11065;50.786;7.840;2023-06-26T11:04:13;5.43;;;3.25;;
21806;SDS011;11065;50.786;7.840;2023-06-26T11:06:45;5.63;;;3.42;;
21806;SDS011;11065;50.786;7.840;2023-06-26T11:09:17;5.38;;;2.90;;
21806;SDS011;11065;50.786;7.840;2023-06-26T11:11:57;6.28;;;3.17;;
21806;SDS011;11065;50.786;7.840;2023-06-26T11:14:28;13.93;;;3.00;;
21806;SDS011;11065;50.786;7.840;2023-06-26T11:17:01;5.63;;;2.65;;
21806;SDS011;11065;50.786;7.840;2023-06-26T11:19:30;4.93;;;2.65;;
21806;SDS011;11065;50.786;7.840;2023-06-26T11:21:59;7.30;;;3.35;;
21806;SDS011;11065;50.786;7.840;2023-06-26T11:24:30;3.70;;;2.50;;
21806;SDS011;11065;50.786;7.840;2023-06-26T11:27:02;6.20;;;2.83;;
21806;SDS011;11065;50.786;7.840;2023-06-26T11:29:31;4.63;;;2.45;;
21806;SDS011;11065;50.786;7.840;2023-06-26T11:32:02;3.17;;;2.10;;
21806;SDS011;11065;50.786;7.840;2023-06-26T11:34:34;5.18;;;2.10;;
21806;SDS011;11065;50.786;7.840;2023-06-26T11:37:04;3.50;;;2.20;;
21806;SDS011;11065;50.786;7.840;2023-06-26T11:39:33;7.25;;;2.83;;
21806;SDS011;11065;50.786;7.840;2023-06-26T11:42:04;4.88;;;2.22;;
21806;SDS011;11065;50.786;7.840;2023-06-26T11:44:32;2.88;;;2.00;;
21806;SDS011;11065;50.786;7.840;2023-06-26T11:47:13;5.30;;;2.28;;
21806;SDS011;11065;50.786;7.840;2023-06-26T11:49:43;6.50;;;2.67;;
21806;SDS011;11065;50.786;7.840;2023-06-26T11:52:11;3.20;;;2.13;;
21806;SDS011;11065;50.786;7.840;2023-06-26T11:54:40;3.95;;;2.40;;
21806;SDS011;11065;50.786;7.840;2023-06-26T11:57:08;4.32;;;2.10;;
21806;SDS011;11065;50.786;7.840;2023-06-26T11:59:41;4.55;;;2.28;;
21806;SDS011;11065;50.786;7.840;2023-06-26T12:02:09;5.53;;;2.33;;
21806;SDS011;11065;50.786;7.840;2023-06-26T12:04:40;4.80;;;2.40;;
21806;SDS011;11065;50.786;7.840;2023-06-26T12:07:09;5.15;;;2.00;;
21806;SDS011;11065;50.786;7.840;2023-06-26T12:09:38;5.43;;;1.95;;
21806;SDS011;11065;50.786;7.840;2023-06-26T12:12:08;4.25;;;2.33;;
21806;SDS011;11065;50.786;7.840;2023-06-26T12:14:37;3.72;;;2.05;;
21806;SDS011;11065;50.786;7.840;2023-06-26T12:17:08;5.70;;;1.90;;
21806;SDS011;11065;50.786;7.840;2023-06-26T12:19:37;3.80;;;2.22;;
21806;SDS011;11065;50.786;7.840;2023-06-26T12:22:10;4.13;;;2.30;;
21806;SDS011;11065;50.786;7.840;2023-06-26T12:24:38;5.18;;;2.25;;
21806;SDS011;11065;50.786;7.840;2023-06-26T12:27:08;4.95;;;2.15;;
21806;SDS011;11065;50.786;7.840;2023-06-26T12:29:38;5.22;;;2.70;;
21806;SDS011;11065;50.786;7.840;2023-06-26T12:32:10;6.10;;;2.33;;
21806;SDS011;11065;50.786;7.840;2023-06-26T12:34:40;4.75;;;1.95;;
21806;SDS011;11065;50.786;7.840;2023-06-26T12:37:08;6.55;;;2.03;;
21806;SDS011;11065;50.786;7.840;2023-06-26T12:39:47;4.78;;;2.10;;
21806;SDS011;11065;50.786;7.840;2023-06-26T12:42:20;2.95;;;1.77;;
21806;SDS011;11065;50.786;7.840;2023-06-26T12:44:50;3.42;;;1.50;;
21806;SDS011;11065;50.786;7.840;2023-06-26T12:47:19;4.85;;;2.00;;
21806;SDS011;11065;50.786;7.840;2023-06-26T12:49:53;3.75;;;1.90;;
21806;SDS011;11065;50.786;7.840;2023-06-26T12:52:21;4.82;;;1.83;;
21806;SDS011;11065;50.786;7.840;2023-06-26T12:54:51;3.65;;;1.90;;
21806;SDS011;11065;50.786;7.840;2023-06-26T12:57:20;3.88;;;2.00;;
21806;SDS011;11065;50.786;7.840;2023-06-26T12:59:49;4.30;;;2.00;;
21806;SDS011;11065;50.786;7.840;2023-06-26T13:02:17;5.15;;;1.90;;
21806;SDS011;11065;50.786;7.840;2023-06-26T13:04:46;3.30;;;2.10;;
21806;SDS011;11065;50.786;7.840;2023-06-26T13:07:15;3.20;;;1.90;;
21806;SDS011;11065;50.786;7.840;2023-06-26T13:09:44;2.67;;;1.60;;
21806;SDS011;11065;50.786;7.840;2023-06-26T13:12:14;4.32;;;1.75;;
21806;SDS011;11065;50.786;7.840;2023-06-26T13:14:42;3.85;;;1.77;;
21806;SDS011;11065;50.786;7.840;2023-06-26T13:17:11;2.97;;;1.35;;
21806;SDS011;11065;50.786;7.840;2023-06-26T13:19:38;4.03;;;1.50;;
21806;SDS011;11065;50.786;7.840;2023-06-26T13:22:07;4.75;;;1.80;;
21806;SDS011;11065;50.786;7.840;2023-06-26T13:24:36;3.17;;;1.58;;
21806;SDS011;11065;50.786;7.840;2023-06-26T13:27:04;3.20;;;1.50;;
21806;SDS011;11065;50.786;7.840;2023-06-26T13:29:32;3.38;;;1.50;;
21806;SDS011;11065;50.786;7.840;2023-06-26T13:32:00;6.35;;;1.77;;
21806;SDS011;11065;50.786;7.840;2023-06-26T13:34:28;3.60;;;1.67;;
21806;SDS011;11065;50.786;7.840;2023-06-26T13:36:56;4.97;;;1.85;;
21806;SDS011;11065;50.786;7.840;2023-06-26T13:39:26;3.92;;;1.60;;
21806;SDS011;11065;50.786;7.840;2023-06-26T13:41:55;3.63;;;1.98;;
21806;SDS011;11065;50.786;7.840;2023-06-26T13:44:24;4.18;;;1.70;;
21806;SDS011;11065;50.786;7.840;2023-06-26T13:47:04;3.40;;;1.58;;
21806;SDS011;11065;50.786;7.840;2023-06-26T13:49:35;3.50;;;1.48;;
21806;SDS011;11065;50.786;7.840;2023-06-26T13:52:03;4.45;;;1.75;;
21806;SDS011;11065;50.786;7.840;2023-06-26T13:54:33;9.45;;;1.73;;
21806;SDS011;11065;50.786;7.840;2023-06-26T13:57:04;4.18;;;2.00;;
21806;SDS011;11065;50.786;7.840;2023-06-26T13:59:32;3.53;;;1.95;;
21806;SDS011;11065;50.786;7.840;2023-06-26T14:02:01;3.28;;;1.85;;
21806;SDS011;11065;50.786;7.840;2023-06-26T14:04:30;3.03;;;1.45;;
21806;SDS011;11065;50.786;7.840;2023-06-26T14:06:58;4.32;;;1.58;;
21806;SDS011;11065;50.786;7.840;2023-06-26T14:09:27;3.85;;;1.70;;
21806;SDS011;11065;50.786;7.840;2023-06-26T14:11:55;3.22;;;1.80;;
21806;SDS011;11065;50.786;7.840;2023-06-26T14:14:24;3.88;;;1.70;;
21806;SDS011;11065;50.786;7.840;2023-06-26T14:16:53;3.03;;;1.67;;
21806;SDS011;11065;50.786;7.840;2023-06-26T14:19:21;5.43;;;1.83;;
21806;SDS011;11065;50.786;7.840;2023-06-26T14:21:49;5.43;;;1.55;;
21806;SDS011;11065;50.786;7.840;2023-06-26T14:24:17;3.75;;;1.48;;
21806;SDS011;11065;50.786;7.840;2023-06-26T14:26:44;4.32;;;1.40;;
21806;SDS011;11065;50.786;7.840;2023-06-26T14:29:12;6.60;;;1.90;;
21806;SDS011;11065;50.786;7.840;2023-06-26T14:31:44;4.22;;;1.48;;
21806;SDS011;11065;50.786;7.840;2023-06-26T14:34:16;6.45;;;1.55;;
21806;SDS011;11065;50.786;7.840;2023-06-26T14:36:44;4.05;;;1.50;;
21806;SDS011;11065;50.786;7.840;2023-06-26T14:39:12;3.47;;;1.40;;
21806;SDS011;11065;50.786;7.840;2023-06-26T14:41:41;2.72;;;1.23;;
21806;SDS011;11065;50.786;7.840;2023-06-26T14:44:10;4.50;;;1.40;;
21806;SDS011;11065;50.786;7.840;2023-06-26T14:46:38;1.98;;;1.10;;
21806;SDS011;11065;50.786;7.840;2023-06-26T14:49:08;4.78;;;1.45;;
21806;SDS011;11065;50.786;7.840;2023-06-26T14:51:36;3.47;;;1.40;;
21806;SDS011;11065;50.786;7.840;2023-06-26T14:54:06;4.22;;;1.25;;
21806;SDS011;11065;50.786;7.840;2023-06-26T14:56:34;2.13;;;1.33;;
21806;SDS011;11065;50.786;7.840;2023-06-26T14:59:03;2.88;;;0.98;;
21806;SDS011;11065;50.786;7.840;2023-06-26T15:01:31;2.50;;;1.20;;
21806;SDS011;11065;50.786;7.840;2023-06-26T15:03:59;3.92;;;1.30;;